sensor_id;sensor_type;location;lat;lon;timestamp;pressure;altitude;pressure_sealevel;temperature;humidity
57572;BME280;44459;43.522;24.470;2022-11-23T00:00:35;98965.91;;;7.47;100.00
57572;BME280;44459;43.522;24.470;2022-11-23T00:03:02;98972.03;;;7.54;100.00
57572;BME280;44459;43.522;24.470;2022-11-23T00:05:29;98969.44;;;7.45;100.00
57572;BME280;44459;43.522;24.470;2022-11-23T00:07:54;98975.56;;;7.42;100.00
57572;BME280;44459;43.522;24.470;2022-11-23T00:10:20;98975.56;;;7.42;100.00
57572;BME280;44459;43.522;24.470;2022-11-23T00:12:46;98972.94;;;7.41;100.00
57572;BME280;44459;43.522;24.470;2022-11-23T00:15:13;98974.69;;;7.40;100.00
57572;BME280;44459;43.522;24.470;2022-11-23T00:17:39;98972.94;;;7.38;100.00
57572;BME280;44459;43.522;24.470;2022-11-23T00:20:06;98958.06;;;7.37;100.00
57572;BME280;44459;43.522;24.470;2022-11-23T00:22:32;98958.09;;;7.35;100.00
57572;BME280;44459;43.522;24.470;2022-11-23T00:24:57;98948.44;;;7.33;100.00
57572;BME280;44459;43.522;24.470;2022-11-23T00:27:23;98943.19;;;7.33;100.00
57572;BME280;44459;43.522;24.470;2022-11-23T00:29:48;98946.69;;;7.41;100.00
57572;BME280;44459;43.522;24.470;2022-11-23T00:32:14;98949.31;;;7.39;100.00
57572;BME280;44459;43.522;24.470;2022-11-23T00:34:39;98942.31;;;7.34;100.00
57572;BME280;44459;43.522;24.470;2022-11-23T00:37:05;98937.97;;;7.27;100.00
57572;BME280;44459;43.522;24.470;2022-11-23T00:39:30;98951.94;;;7.26;100.00
57572;BME280;44459;43.522;24.470;2022-11-23T00:41:56;98949.34;;;7.23;100.00
57572;BME280;44459;43.522;24.470;2022-11-23T00:44:21;98944.09;;;7.23;100.00
57572;BME280;44459;43.522;24.470;2022-11-23T00:46:46;98936.22;;;7.12;100.00
57572;BME280;44459;43.522;24.470;2022-11-23T00:49:12;98937.97;;;7.12;100.00
57572;BME280;44459;43.522;24.470;2022-11-23T00:51:37;98941.47;;;7.14;100.00
57572;BME280;44459;43.522;24.470;2022-11-23T00:54:04;98946.72;;;7.15;100.00
57572;BME280;44459;43.522;24.470;2022-11-23T00:56:31;98937.13;;;7.14;100.00
57572;BME280;44459;43.522;24.470;2022-11-23T00:58:58;98946.72;;;7.14;100.00
57572;BME280;44459;43.522;24.470;2022-11-23T01:01:34;98956.31;;;7.22;100.00
57572;BME280;44459;43.522;24.470;2022-11-23T01:04:03;98950.22;;;7.25;100.00
57572;BME280;44459;43.522;24.470;2022-11-23T01:06:34;98941.47;;;7.23;100.00
57572;BME280;44459;43.522;24.470;2022-11-23T01:09:03;98928.34;;;7.27;100.00
57572;BME280;44459;43.522;24.470;2022-11-23T01:11:31;98922.25;;;7.18;100.00
57572;BME280;44459;43.522;24.470;2022-11-23T01:13:57;98922.22;;;7.08;100.00
57572;BME280;44459;43.522;24.470;2022-11-23T01:16:23;98913.50;;;7.09;100.00
57572;BME280;44459;43.522;24.470;2022-11-23T01:19:02;98920.50;;;7.03;100.00
57572;BME280;44459;43.522;24.470;2022-11-23T01:21:31;98912.63;;;7.07;100.00
57572;BME280;44459;43.522;24.470;2022-11-23T01:23:57;98927.50;;;7.05;100.00
57572;BME280;44459;43.522;24.470;2022-11-23T01:26:23;98928.38;;;7.07;100.00
57572;BME280;44459;43.522;24.470;2022-11-23T01:28:49;98929.25;;;7.09;100.00
57572;BME280;44459;43.522;24.470;2022-11-23T01:31:20;98926.59;;;7.13;100.00
57572;BME280;44459;43.522;24.470;2022-11-23T01:33:46;98910.88;;;7.14;100.00
57572;BME280;44459;43.522;24.470;2022-11-23T01:36:12;98912.63;;;7.09;100.00
57572;BME280;44459;43.522;24.470;2022-11-23T01:38:39;98906.47;;;7.16;100.00
57572;BME280;44459;43.522;24.470;2022-11-23T01:41:06;98913.50;;;7.22;100.00
57572;BME280;44459;43.522;24.470;2022-11-23T01:43:31;98909.97;;;7.26;100.00
57572;BME280;44459;43.522;24.470;2022-11-23T01:46:00;98905.59;;;7.26;100.00
57572;BME280;44459;43.522;24.470;2022-11-23T01:48:37;98906.44;;;7.30;100.00
57572;BME280;44459;43.522;24.470;2022-11-23T01:51:05;98894.22;;;7.30;100.00
57572;BME280;44459;43.522;24.470;2022-11-23T01:53:33;98888.09;;;7.31;100.00
57572;BME280;44459;43.522;24.470;2022-11-23T01:56:02;98887.19;;;7.34;100.00
57572;BME280;44459;43.522;24.470;2022-11-23T01:58:31;98898.59;;;7.22;100.00
57572;BME280;44459;43.522;24.470;2022-11-23T02:00:58;98905.63;;;7.22;100.00
57572;BME280;44459;43.522;24.470;2022-11-23T02:03:24;98910.88;;;7.09;100.00
57572;BME280;44459;43.522;24.470;2022-11-23T02:05:54;98905.63;;;7.11;100.00
57572;BME280;44459;43.522;24.470;2022-11-23T02:08:24;98896.84;;;7.15;100.00
57572;BME280;44459;43.522;24.470;2022-11-23T02:10:51;98903.84;;;7.12;100.00
57572;BME280;44459;43.522;24.470;2022-11-23T02:13:17;98900.38;;;7.13;100.00
57572;BME280;44459;43.522;24.470;2022-11-23T02:15:42;98916.09;;;7.23;100.00
57572;BME280;44459;43.522;24.470;2022-11-23T02:18:17;98917.88;;;7.21;100.00
57572;BME280;44459;43.522;24.470;2022-11-23T02:20:44;98915.22;;;7.27;100.00
57572;BME280;44459;43.522;24.470;2022-11-23T02:26:10;98909.06;;;7.42;100.00
57572;BME280;44459;43.522;24.470;2022-11-23T02:31:14;98909.13;;;7.25;100.00
57572;BME280;44459;43.522;24.470;2022-11-23T02:33:40;98906.47;;;7.28;100.00
57572;BME280;44459;43.522;24.470;2022-11-23T02:36:33;98923.06;;;7.36;100.00
57572;BME280;44459;43.522;24.470;2022-11-23T02:39:05;98923.97;;;7.25;100.00
57572;BME280;44459;43.522;24.470;2022-11-23T02:41:45;98917.84;;;7.23;100.00
57572;BME280;44459;43.522;24.470;2022-11-23T02:45:04;98910.84;;;7.23;100.00
57572;BME280;44459;43.522;24.470;2022-11-23T02:47:05;98915.22;;;7.23;100.00
57572;BME280;44459;43.522;24.470;2022-11-23T02:49:31;98915.25;;;7.17;100.00
57572;BME280;44459;43.522;24.470;2022-11-23T02:51:57;98914.38;;;6.99;100.00
57572;BME280;44459;43.522;24.470;2022-11-23T02:54:22;98908.28;;;6.97;100.00
57572;BME280;44459;43.522;24.470;2022-11-23T02:56:48;98917.88;;;6.98;100.00
57572;BME280;44459;43.522;24.470;2022-11-23T02:59:13;98927.50;;;6.99;100.00
57572;BME280;44459;43.522;24.470;2022-11-23T03:01:39;98925.75;;;6.95;100.00
57572;BME280;44459;43.522;24.470;2022-11-23T03:04:05;98921.38;;;6.93;100.00
57572;BME280;44459;43.522;24.470;2022-11-23T03:06:31;98914.38;;;6.95;100.00
57572;BME280;44459;43.522;24.470;2022-11-23T03:08:56;98911.78;;;7.01;100.00
57572;BME280;44459;43.522;24.470;2022-11-23T03:11:21;98915.28;;;7.04;100.00
57572;BME280;44459;43.522;24.470;2022-11-23T03:13:47;98911.75;;;7.10;100.00
57572;BME280;44459;43.522;24.470;2022-11-23T03:16:13;98912.63;;;7.21;100.00
57572;BME280;44459;43.522;24.470;2022-11-23T03:18:38;98906.47;;;7.16;100.00
57572;BME280;44459;43.522;24.470;2022-11-23T03:21:05;98905.59;;;7.19;100.00
57572;BME280;44459;43.522;24.470;2022-11-23T03:23:33;98906.50;;;7.15;100.00
57572;BME280;44459;43.522;24.470;2022-11-23T03:25:59;98906.50;;;7.10;100.00
57572;BME280;44459;43.522;24.470;2022-11-23T03:28:24;98909.13;;;7.13;100.00
57572;BME280;44459;43.522;24.470;2022-11-23T03:30:50;98900.38;;;7.11;100.00
57572;BME280;44459;43.522;24.470;2022-11-23T03:33:15;98912.63;;;7.14;100.00
57572;BME280;44459;43.522;24.470;2022-11-23T03:35:41;98896.88;;;7.09;100.00
57572;BME280;44459;43.522;24.470;2022-11-23T03:38:07;98875.88;;;7.14;100.00
57572;BME280;44459;43.522;24.470;2022-11-23T03:40:32;98867.13;;;7.13;100.00
57572;BME280;44459;43.522;24.470;2022-11-23T03:42:58;98864.50;;;7.08;100.00
57572;BME280;44459;43.522;24.470;2022-11-23T03:45:23;98869.78;;;7.05;100.00
57572;BME280;44459;43.522;24.470;2022-11-23T03:47:49;98879.41;;;7.06;100.00
57572;BME280;44459;43.522;24.470;2022-11-23T03:50:14;98877.66;;;7.02;100.00
57572;BME280;44459;43.522;24.470;2022-11-23T03:52:40;98877.63;;;7.05;100.00
57572;BME280;44459;43.522;24.470;2022-11-23T03:55:05;98872.41;;;7.02;100.00
57572;BME280;44459;43.522;24.470;2022-11-23T03:57:31;98872.41;;;6.99;100.00
57572;BME280;44459;43.522;24.470;2022-11-23T03:59:56;98875.91;;;7.01;100.00
57572;BME280;44459;43.522;24.470;2022-11-23T04:02:22;98873.28;;;6.98;100.00
57572;BME280;44459;43.522;24.470;2022-11-23T04:04:47;98866.31;;;6.88;100.00
57572;BME280;44459;43.522;24.470;2022-11-23T04:07:12;98860.19;;;6.85;100.00
57572;BME280;44459;43.522;24.470;2022-11-23T04:09:38;98866.31;;;6.85;100.00
57572;BME280;44459;43.522;24.470;2022-11-23T04:12:05;98868.94;;;6.88;100.00
57572;BME280;44459;43.522;24.470;2022-11-23T04:14:31;98868.94;;;6.88;100.00
57572;BME280;44459;43.522;24.470;2022-11-23T04:16:56;98879.44;;;6.90;100.00
57572;BME280;44459;43.522;24.470;2022-11-23T04:19:21;98897.78;;;6.91;100.00
57572;BME280;44459;43.522;24.470;2022-11-23T04:21:47;98908.28;;;6.93;100.00
57572;BME280;44459;43.522;24.470;2022-11-23T04:24:12;98899.53;;;6.95;100.00
57572;BME280;44459;43.522;24.470;2022-11-23T04:26:38;98897.78;;;6.93;100.00
57572;BME280;44459;43.522;24.470;2022-11-23T04:29:05;98907.38;;;6.95;100.00
57572;BME280;44459;43.522;24.470;2022-11-23T04:31:31;98901.25;;;6.99;100.00
57572;BME280;44459;43.522;24.470;2022-11-23T04:33:57;98895.13;;;7.02;100.00
57572;BME280;44459;43.522;24.470;2022-11-23T04:36:22;98900.41;;;7.03;100.00
57572;BME280;44459;43.522;24.470;2022-11-23T04:38:48;98894.28;;;7.04;100.00
57572;BME280;44459;43.522;24.470;2022-11-23T04:41:13;98894.25;;;7.11;100.00
57572;BME280;44459;43.522;24.470;2022-11-23T04:43:39;98896.00;;;7.13;100.00
57572;BME280;44459;43.522;24.470;2022-11-23T04:46:04;98905.63;;;7.22;100.00
57572;BME280;44459;43.522;24.470;2022-11-23T04:48:30;98912.59;;;7.20;100.00
57572;BME280;44459;43.522;24.470;2022-11-23T04:50:56;98913.50;;;7.13;100.00
57572;BME280;44459;43.522;24.470;2022-11-23T04:53:22;98916.13;;;7.14;100.00
57572;BME280;44459;43.522;24.470;2022-11-23T04:55:47;98913.50;;;7.22;100.00
57572;BME280;44459;43.522;24.470;2022-11-23T04:58:13;98918.72;;;7.28;100.00
57572;BME280;44459;43.522;24.470;2022-11-23T05:00:38;98913.47;;;7.25;100.00
57572;BME280;44459;43.522;24.470;2022-11-23T05:03:04;98916.97;;;7.24;100.00
57572;BME280;44459;43.522;24.470;2022-11-23T05:05:29;98917.84;;;7.24;100.00
57572;BME280;44459;43.522;24.470;2022-11-23T05:07:56;98921.31;;;7.29;100.00
57572;BME280;44459;43.522;24.470;2022-11-23T05:10:22;98917.84;;;7.32;100.00
57572;BME280;44459;43.522;24.470;2022-11-23T05:12:47;98916.09;;;7.31;100.00
57572;BME280;44459;43.522;24.470;2022-11-23T05:15:13;98914.34;;;7.28;100.00
57572;BME280;44459;43.522;24.470;2022-11-23T05:17:39;98905.59;;;7.28;100.00
57572;BME280;44459;43.522;24.470;2022-11-23T05:20:05;98900.31;;;7.29;100.00
57572;BME280;44459;43.522;24.470;2022-11-23T05:22:30;98903.84;;;7.22;100.00
57572;BME280;44459;43.522;24.470;2022-11-23T05:24:56;98903.84;;;7.28;100.00
57572;BME280;44459;43.522;24.470;2022-11-23T05:27:21;98923.09;;;7.27;100.00
57572;BME280;44459;43.522;24.470;2022-11-23T05:29:46;98943.22;;;7.18;100.00
57572;BME280;44459;43.522;24.470;2022-11-23T05:32:12;98937.13;;;7.06;100.00
57572;BME280;44459;43.522;24.470;2022-11-23T05:34:37;98942.34;;;7.08;100.00
57572;BME280;44459;43.522;24.470;2022-11-23T05:37:03;98952.84;;;7.09;100.00
57572;BME280;44459;43.522;24.470;2022-11-23T05:39:28;98958.97;;;7.21;100.00
57572;BME280;44459;43.522;24.470;2022-11-23T05:41:54;98960.72;;;7.25;100.00
57572;BME280;44459;43.522;24.470;2022-11-23T05:44:19;98961.59;;;7.12;100.00
57572;BME280;44459;43.522;24.470;2022-11-23T05:46:44;98965.97;;;7.06;100.00
57572;BME280;44459;43.522;24.470;2022-11-23T05:49:10;98966.84;;;7.15;100.00
57572;BME280;44459;43.522;24.470;2022-11-23T05:51:35;98972.09;;;7.19;100.00
57572;BME280;44459;43.522;24.470;2022-11-23T05:54:01;98957.22;;;7.06;100.00
57572;BME280;44459;43.522;24.470;2022-11-23T05:56:27;98954.63;;;7.07;100.00
57572;BME280;44459;43.522;24.470;2022-11-23T05:58:54;98950.25;;;7.03;100.00
57572;BME280;44459;43.522;24.470;2022-11-23T06:01:20;98955.47;;;7.06;100.00
57572;BME280;44459;43.522;24.470;2022-11-23T06:03:46;98950.22;;;6.94;100.00
57572;BME280;44459;43.522;24.470;2022-11-23T06:06:11;98960.72;;;7.13;100.00
57572;BME280;44459;43.522;24.470;2022-11-23T06:08:36;98974.72;;;7.05;100.00
57572;BME280;44459;43.522;24.470;2022-11-23T06:11:02;98974.72;;;6.90;100.00
57572;BME280;44459;43.522;24.470;2022-11-23T06:13:28;98964.22;;;6.98;100.00
57572;BME280;44459;43.522;24.470;2022-11-23T06:15:53;98959.88;;;7.00;100.00
57572;BME280;44459;43.522;24.470;2022-11-23T06:18:18;98972.09;;;6.98;100.00
57572;BME280;44459;43.522;24.470;2022-11-23T06:20:44;98972.13;;;7.01;100.00
57572;BME280;44459;43.522;24.470;2022-11-23T06:23:09;98972.09;;;7.07;100.00
57572;BME280;44459;43.522;24.470;2022-11-23T06:25:35;98973.84;;;7.11;100.00
57572;BME280;44459;43.522;24.470;2022-11-23T06:28:03;98978.22;;;7.24;100.00
57572;BME280;44459;43.522;24.470;2022-11-23T06:30:29;98979.94;;;7.27;100.00
57572;BME280;44459;43.522;24.470;2022-11-23T06:32:55;98972.94;;;7.33;100.00
57572;BME280;44459;43.522;24.470;2022-11-23T06:35:21;98982.56;;;7.40;100.00
57572;BME280;44459;43.522;24.470;2022-11-23T06:37:48;98986.06;;;7.42;100.00
57572;BME280;44459;43.522;24.470;2022-11-23T06:40:14;98986.06;;;7.44;100.00
57572;BME280;44459;43.522;24.470;2022-11-23T06:42:39;98977.31;;;7.36;100.00
57572;BME280;44459;43.522;24.470;2022-11-23T06:45:06;98977.31;;;7.39;100.00
57572;BME280;44459;43.522;24.470;2022-11-23T06:47:31;98969.44;;;7.37;100.00
57572;BME280;44459;43.522;24.470;2022-11-23T06:49:56;98955.44;;;7.40;100.00
57572;BME280;44459;43.522;24.470;2022-11-23T06:52:22;98971.16;;;7.43;100.00
57572;BME280;44459;43.522;24.470;2022-11-23T06:54:47;98965.03;;;7.39;100.00
57572;BME280;44459;43.522;24.470;2022-11-23T06:57:13;98965.09;;;7.29;100.00
57572;BME280;44459;43.522;24.470;2022-11-23T06:59:38;98973.84;;;7.28;100.00
57572;BME280;44459;43.522;24.470;2022-11-23T07:02:04;98978.22;;;7.32;100.00
57572;BME280;44459;43.522;24.470;2022-11-23T07:04:30;98970.31;;;7.15;100.00
57572;BME280;44459;43.522;24.470;2022-11-23T07:06:56;98966.84;;;7.31;100.00
57572;BME280;44459;43.522;24.470;2022-11-23T07:09:21;98964.19;;;7.49;100.00
57572;BME280;44459;43.522;24.470;2022-11-23T07:11:46;98973.78;;;7.58;100.00
57572;BME280;44459;43.522;24.470;2022-11-23T07:14:12;98983.41;;;7.67;100.00
57572;BME280;44459;43.522;24.470;2022-11-23T07:16:37;98974.63;;;7.72;100.00
57572;BME280;44459;43.522;24.470;2022-11-23T07:19:03;98969.34;;;7.84;100.00
57572;BME280;44459;43.522;24.470;2022-11-23T07:21:28;98964.94;;;7.91;100.00
57572;BME280;44459;43.522;24.470;2022-11-23T07:23:54;98964.00;;;7.99;100.00
57572;BME280;44459;43.522;24.470;2022-11-23T07:26:19;98961.41;;;7.96;100.00
57572;BME280;44459;43.522;24.470;2022-11-23T07:28:45;98943.84;;;8.00;100.00
57572;BME280;44459;43.522;24.470;2022-11-23T07:31:10;98968.31;;;8.13;100.00
57572;BME280;44459;43.522;24.470;2022-11-23T07:33:36;98958.72;;;8.07;100.00
57572;BME280;44459;43.522;24.470;2022-11-23T07:36:02;98964.03;;;7.92;100.00
57572;BME280;44459;43.522;24.470;2022-11-23T07:38:28;98971.94;;;7.87;100.00
57572;BME280;44459;43.522;24.470;2022-11-23T07:40:54;98995.59;;;7.90;100.00
57572;BME280;44459;43.522;24.470;2022-11-23T07:43:19;98980.66;;;7.95;100.00
57572;BME280;44459;43.522;24.470;2022-11-23T07:45:45;98989.47;;;7.75;100.00
57572;BME280;44459;43.522;24.470;2022-11-23T07:48:10;98983.31;;;7.85;100.00
57572;BME280;44459;43.522;24.470;2022-11-23T07:50:37;98991.19;;;7.94;100.00
57572;BME280;44459;43.522;24.470;2022-11-23T07:53:04;98992.03;;;8.03;100.00
57572;BME280;44459;43.522;24.470;2022-11-23T07:55:30;99007.75;;;8.13;100.00
57572;BME280;44459;43.522;24.470;2022-11-23T07:57:57;98998.94;;;8.20;100.00
57572;BME280;44459;43.522;24.470;2022-11-23T08:00:24;99000.69;;;8.27;100.00
57572;BME280;44459;43.522;24.470;2022-11-23T08:02:50;99001.59;;;8.21;100.00
57572;BME280;44459;43.522;24.470;2022-11-23T08:05:16;99012.13;;;8.18;100.00
57572;BME280;44459;43.522;24.470;2022-11-23T08:07:41;99006.84;;;8.21;100.00
57572;BME280;44459;43.522;24.470;2022-11-23T08:10:08;98996.34;;;8.17;100.00
57572;BME280;44459;43.522;24.470;2022-11-23T08:12:33;98995.44;;;8.25;100.00
57572;BME280;44459;43.522;24.470;2022-11-23T08:14:59;99000.72;;;8.28;100.00
57572;BME280;44459;43.522;24.470;2022-11-23T08:17:24;98998.06;;;8.24;100.00
57572;BME280;44459;43.522;24.470;2022-11-23T08:19:50;98995.41;;;8.27;100.00
57572;BME280;44459;43.522;24.470;2022-11-23T08:22:15;99002.47;;;8.32;100.00
57572;BME280;44459;43.522;24.470;2022-11-23T08:24:41;99005.03;;;8.41;100.00
57572;BME280;44459;43.522;24.470;2022-11-23T08:27:06;99004.19;;;8.36;100.00
57572;BME280;44459;43.522;24.470;2022-11-23T08:29:32;99016.41;;;8.40;100.00
57572;BME280;44459;43.522;24.470;2022-11-23T08:31:57;99003.28;;;8.37;100.00
57572;BME280;44459;43.522;24.470;2022-11-23T08:34:23;99009.44;;;8.35;100.00
57572;BME280;44459;43.522;24.470;2022-11-23T08:36:48;99006.84;;;8.26;100.00
57572;BME280;44459;43.522;24.470;2022-11-23T08:39:14;98998.94;;;8.20;100.00
57572;BME280;44459;43.522;24.470;2022-11-23T08:41:40;98992.00;;;8.16;100.00
57572;BME280;44459;43.522;24.470;2022-11-23T08:44:06;98982.28;;;8.24;100.00
57572;BME280;44459;43.522;24.470;2022-11-23T08:46:35;98982.31;;;8.19;100.00
57572;BME280;44459;43.522;24.470;2022-11-23T08:49:02;98979.69;;;8.21;100.00
57572;BME280;44459;43.522;24.470;2022-11-23T08:51:28;98980.56;;;8.17;100.00
57572;BME280;44459;43.522;24.470;2022-11-23T08:53:53;98983.16;;;8.23;100.00
57572;BME280;44459;43.522;24.470;2022-11-23T08:56:19;98999.84;;;8.22;100.00
57572;BME280;44459;43.522;24.470;2022-11-23T08:58:45;98997.22;;;8.29;100.00
57572;BME280;44459;43.522;24.470;2022-11-23T09:01:12;98989.28;;;8.38;100.00
57572;BME280;44459;43.522;24.470;2022-11-23T09:03:39;98998.88;;;8.41;100.00
57572;BME280;44459;43.522;24.470;2022-11-23T09:06:04;98998.00;;;8.42;100.00
57572;BME280;44459;43.522;24.470;2022-11-23T09:08:30;98998.88;;;8.44;100.00
57572;BME280;44459;43.522;24.470;2022-11-23T09:11:03;98990.09;;;8.48;100.00
57572;BME280;44459;43.522;24.470;2022-11-23T09:13:29;98986.59;;;8.49;100.00
57572;BME280;44459;43.522;24.470;2022-11-23T09:15:58;98977.88;;;8.39;100.00
57572;BME280;44459;43.522;24.470;2022-11-23T09:18:26;98981.31;;;8.49;100.00
57572;BME280;44459;43.522;24.470;2022-11-23T09:20:52;98983.03;;;8.56;100.00
57572;BME280;44459;43.522;24.470;2022-11-23T09:23:17;98988.34;;;8.50;100.00
57572;BME280;44459;43.522;24.470;2022-11-23T09:25:43;98986.66;;;8.40;100.00
57572;BME280;44459;43.522;24.470;2022-11-23T09:28:12;98983.09;;;8.44;100.00
57572;BME280;44459;43.522;24.470;2022-11-23T09:30:39;98985.78;;;8.33;100.00
57572;BME280;44459;43.522;24.470;2022-11-23T09:33:05;98988.44;;;8.29;100.00
57572;BME280;44459;43.522;24.470;2022-11-23T09:35:32;98980.53;;;8.27;100.00
57572;BME280;44459;43.522;24.470;2022-11-23T09:37:58;98986.66;;;8.34;100.00
57572;BME280;44459;43.522;24.470;2022-11-23T09:40:28;98974.38;;;8.36;100.00
57572;BME280;44459;43.522;24.470;2022-11-23T09:51:20;98955.94;;;8.40;100.00
57572;BME280;44459;43.522;24.470;2022-11-23T09:53:59;98956.00;;;8.36;100.00
57572;BME280;44459;43.522;24.470;2022-11-23T09:56:34;98962.13;;;8.36;100.00
57572;BME280;44459;43.522;24.470;2022-11-23T09:59:04;98956.00;;;8.36;100.00
57572;BME280;44459;43.522;24.470;2022-11-23T10:01:35;98962.97;;;8.38;100.00
57572;BME280;44459;43.522;24.470;2022-11-23T10:04:03;98964.75;;;8.33;100.00
57572;BME280;44459;43.522;24.470;2022-11-23T10:06:32;98972.66;;;8.32;100.00
57572;BME280;44459;43.522;24.470;2022-11-23T10:22:47;98966.59;;;8.05;100.00
57572;BME280;44459;43.522;24.470;2022-11-23T10:25:18;98970.16;;;8.01;100.00
57572;BME280;44459;43.522;24.470;2022-11-23T10:27:50;98974.50;;;8.04;100.00
57572;BME280;44459;43.522;24.470;2022-11-23T10:30:19;98977.13;;;8.04;100.00
57572;BME280;44459;43.522;24.470;2022-11-23T10:32:56;98961.34;;;8.07;100.00
57572;BME280;44459;43.522;24.470;2022-11-23T10:37:49;98963.16;;;7.97;100.00
57572;BME280;44459;43.522;24.470;2022-11-23T10:40:21;98959.63;;;8.03;100.00
57572;BME280;44459;43.522;24.470;2022-11-23T10:43:00;98962.25;;;7.98;100.00
57572;BME280;44459;43.522;24.470;2022-11-23T10:45:29;98958.88;;;7.74;100.00
57572;BME280;44459;43.522;24.470;2022-11-23T10:47:58;98965.84;;;7.76;100.00
57572;BME280;44459;43.522;24.470;2022-11-23T10:50:29;98955.34;;;7.76;100.00
57572;BME280;44459;43.522;24.470;2022-11-23T10:55:53;98956.22;;;7.84;100.00
57572;BME280;44459;43.522;24.470;2022-11-23T10:58:44;98951.75;;;7.97;100.00
57572;BME280;44459;43.522;24.470;2022-11-23T11:01:15;98943.00;;;7.96;100.00
57572;BME280;44459;43.522;24.470;2022-11-23T11:03:43;98950.84;;;8.07;100.00
57572;BME280;44459;43.522;24.470;2022-11-23T11:06:09;98951.72;;;8.04;100.00
57572;BME280;44459;43.522;24.470;2022-11-23T11:08:58;98958.75;;;7.99;100.00
57572;BME280;44459;43.522;24.470;2022-11-23T11:11:27;98966.59;;;8.12;100.00
57572;BME280;44459;43.522;24.470;2022-11-23T11:14:16;98974.41;;;8.24;100.00
57572;BME280;44459;43.522;24.470;2022-11-23T11:16:47;98965.59;;;8.37;100.00
57572;BME280;44459;43.522;24.470;2022-11-23T11:19:28;98959.50;;;8.30;100.00
57572;BME280;44459;43.522;24.470;2022-11-23T11:21:55;98962.16;;;8.29;100.00
57572;BME280;44459;43.522;24.470;2022-11-23T11:26:58;98970.03;;;8.30;100.00
57572;BME280;44459;43.522;24.470;2022-11-23T11:29:37;98959.50;;;8.27;100.00
57572;BME280;44459;43.522;24.470;2022-11-23T11:34:34;98954.13;;;8.51;100.00
57572;BME280;44459;43.522;24.470;2022-11-23T11:37:38;98951.41;;;8.65;100.00
57572;BME280;44459;43.522;24.470;2022-11-23T11:40:28;98949.81;;;8.43;100.00
57572;BME280;44459;43.522;24.470;2022-11-23T11:42:58;98949.66;;;8.61;100.00
57572;BME280;44459;43.522;24.470;2022-11-23T11:45:31;98947.91;;;8.68;100.00
57572;BME280;44459;43.522;24.470;2022-11-23T11:50:35;98945.16;;;8.81;100.00
57572;BME280;44459;43.522;24.470;2022-11-23T11:53:06;98943.41;;;8.80;100.00
57572;BME280;44459;43.522;24.470;2022-11-23T11:55:55;98948.59;;;8.89;100.00
57572;BME280;44459;43.522;24.470;2022-11-23T11:58:24;98938.88;;;8.97;100.00
57572;BME280;44459;43.522;24.470;2022-11-23T12:00:55;98949.34;;;9.03;100.00
57572;BME280;44459;43.522;24.470;2022-11-23T12:06:53;98941.38;;;9.11;100.00
57572;BME280;44459;43.522;24.470;2022-11-23T12:09:19;98940.50;;;9.10;100.00
57572;BME280;44459;43.522;24.470;2022-11-23T12:11:47;98938.75;;;9.09;100.00
57572;BME280;44459;43.522;24.470;2022-11-23T12:14:14;98935.22;;;9.15;100.00
57572;BME280;44459;43.522;24.470;2022-11-23T12:16:52;98931.56;;;9.27;100.00
57572;BME280;44459;43.522;24.470;2022-11-23T12:26:53;98931.91;;;8.90;100.00
57572;BME280;44459;43.522;24.470;2022-11-23T12:29:24;98929.31;;;8.86;100.00
57572;BME280;44459;43.522;24.470;2022-11-23T12:37:53;98919.78;;;8.73;100.00
57572;BME280;44459;43.522;24.470;2022-11-23T12:40:39;98930.22;;;8.83;100.00
57572;BME280;44459;43.522;24.470;2022-11-23T12:43:25;98928.53;;;8.76;100.00
57572;BME280;44459;43.522;24.470;2022-11-23T12:49:04;98931.00;;;8.93;100.00
57572;BME280;44459;43.522;24.470;2022-11-23T12:57:25;98946.09;;;8.71;100.00
57572;BME280;44459;43.522;24.470;2022-11-23T13:16:44;98938.97;;;8.88;100.00
57572;BME280;44459;43.522;24.470;2022-11-23T13:22:00;98941.59;;;8.88;100.00
57572;BME280;44459;43.522;24.470;2022-11-23T13:24:30;98950.41;;;8.83;100.00
57572;BME280;44459;43.522;24.470;2022-11-23T13:40:29;98952.09;;;8.90;100.00
57572;BME280;44459;43.522;24.470;2022-11-23T13:43:17;98948.59;;;8.89;100.00
57572;BME280;44459;43.522;24.470;2022-11-23T13:45:44;98951.25;;;8.86;100.00
57572;BME280;44459;43.522;24.470;2022-11-23T13:50:58;98982.00;;;8.81;100.00
57572;BME280;44459;43.522;24.470;2022-11-23T13:53:31;98980.28;;;8.71;100.00
57572;BME280;44459;43.522;24.470;2022-11-23T13:56:25;98970.66;;;8.69;100.00
57572;BME280;44459;43.522;24.470;2022-11-23T14:04:36;98962.78;;;8.69;100.00
57572;BME280;44459;43.522;24.470;2022-11-23T14:09:50;98946.06;;;8.77;100.00
57572;BME280;44459;43.522;24.470;2022-11-23T14:14:59;98965.34;;;8.76;100.00
57572;BME280;44459;43.522;24.470;2022-11-23T14:17:47;98961.84;;;8.76;100.00
57572;BME280;44459;43.522;24.470;2022-11-23T14:40:52;98999.66;;;8.63;100.00
57572;BME280;44459;43.522;24.470;2022-11-23T14:43:21;98992.66;;;8.58;100.00
57572;BME280;44459;43.522;24.470;2022-11-23T14:45:47;99005.06;;;8.34;100.00
57572;BME280;44459;43.522;24.470;2022-11-23T14:48:22;99018.19;;;8.43;100.00
57572;BME280;44459;43.522;24.470;2022-11-23T14:53:24;99019.09;;;8.33;100.00
57572;BME280;44459;43.522;24.470;2022-11-23T14:55:52;99022.59;;;8.39;100.00
57572;BME280;44459;43.522;24.470;2022-11-23T14:58:18;99019.06;;;8.37;100.00
57572;BME280;44459;43.522;24.470;2022-11-23T15:00:44;99014.75;;;8.29;100.00
57572;BME280;44459;43.522;24.470;2022-11-23T15:03:15;99016.44;;;8.27;100.00
57572;BME280;44459;43.522;24.470;2022-11-23T15:05:52;99027.06;;;7.99;100.00
57572;BME280;44459;43.522;24.470;2022-11-23T15:08:22;99036.69;;;7.99;100.00
57572;BME280;44459;43.522;24.470;2022-11-23T15:13:31;99039.28;;;8.22;100.00